createdAt,value
2022-11-23T00:01:39.829Z,14.95
2022-11-23T00:06:43.139Z,12.57
2022-11-23T00:11:47.148Z,14.50
2022-11-23T00:16:49.739Z,13.15
2022-11-23T00:21:52.329Z,16.55
2022-11-23T00:26:56.555Z,12.73
2022-11-23T00:31:59.113Z,11.20
2022-11-23T00:37:01.695Z,12.55
2022-11-23T00:42:06.007Z,12.18
2022-11-23T00:47:08.594Z,9.90
2022-11-23T00:52:11.290Z,13.20
2022-11-23T00:57:15.457Z,13.75
2022-11-23T01:02:18.241Z,10.07
2022-11-23T01:07:20.962Z,11.10
2022-11-23T01:12:25.346Z,11.93
2022-11-23T01:17:27.917Z,9.50
2022-11-23T01:22:30.534Z,13.15
2022-11-23T01:27:34.572Z,13.60
2022-11-23T01:32:37.286Z,10.38
2022-11-23T01:37:39.918Z,11.82
2022-11-23T01:42:53.782Z,11.18
2022-11-23T01:47:56.483Z,14.10
2022-11-23T01:52:59.410Z,11.95
2022-11-23T01:58:04.799Z,12.55
2022-11-23T02:03:08.368Z,12.73
2022-11-23T02:08:12.674Z,15.40
2022-11-23T02:13:16.886Z,10.63
2022-11-23T02:18:23.974Z,10.38
2022-11-23T02:23:34.791Z,12.18
2022-11-23T02:28:43.412Z,15.18
2022-11-23T02:33:46.032Z,16.20
2022-11-23T02:38:48.992Z,20.58
2022-11-23T02:43:57.677Z,11.05
2022-11-23T02:49:00.385Z,11.55
2022-11-23T02:54:03.347Z,13.55
2022-11-23T02:59:07.379Z,12.60
2022-11-23T03:04:10.702Z,10.30
2022-11-23T03:09:13.512Z,12.68
2022-11-23T03:14:17.571Z,15.27
2022-11-23T03:19:20.160Z,12.32
2022-11-23T03:24:22.812Z,11.57
2022-11-23T03:29:28.007Z,17.42
2022-11-23T03:34:30.689Z,11.45
2022-11-23T03:39:33.644Z,13.63
2022-11-23T03:44:37.762Z,13.20
2022-11-23T03:49:40.392Z,11.10
2022-11-23T03:54:43.076Z,11.30
2022-11-23T03:59:47.022Z,11.85
2022-11-23T04:04:49.818Z,8.85
2022-11-23T04:09:52.393Z,14.43
2022-11-23T04:14:57.407Z,12.55
2022-11-23T04:20:00.058Z,11.40
2022-11-23T04:25:02.991Z,11.52
2022-11-23T04:30:08.215Z,10.77
2022-11-23T04:35:10.805Z,13.70
2022-11-23T04:40:14.912Z,10.80
2022-11-23T04:45:18.904Z,6.43
2022-11-23T04:50:21.616Z,9.55
2022-11-23T04:55:24.446Z,13.95
2022-11-23T05:00:29.985Z,9.80
2022-11-23T05:05:32.667Z,10.45
2022-11-23T05:10:36.013Z,8.57
2022-11-23T05:15:40.059Z,11.27
2022-11-23T05:20:42.716Z,6.07
2022-11-23T05:25:45.475Z,8.73
2022-11-23T05:30:49.782Z,9.38
2022-11-23T05:35:52.496Z,5.45
2022-11-23T05:40:55.193Z,9.02
2022-11-23T05:46:01.346Z,11.57
2022-11-23T05:51:05.662Z,11.77
2022-11-23T05:56:08.628Z,8.77
2022-11-23T06:01:13.769Z,9.70
2022-11-23T06:06:16.375Z,12.43
2022-11-23T06:11:19.029Z,10.65
2022-11-23T06:16:23.045Z,10.48
2022-11-23T06:21:25.821Z,10.57
2022-11-23T06:26:28.567Z,8.57
2022-11-23T06:31:32.950Z,11.35
2022-11-23T06:36:35.794Z,9.98
2022-11-23T06:41:38.550Z,6.47
2022-11-23T06:46:42.565Z,9.30
2022-11-23T06:51:46.372Z,7.50
2022-11-23T06:56:48.953Z,11.10
2022-11-23T07:01:53.260Z,12.15
2022-11-23T07:06:56.123Z,9.90
2022-11-23T07:11:58.772Z,13.40
2022-11-23T07:17:03.003Z,11.23
2022-11-23T07:22:05.629Z,7.13
2022-11-23T07:27:08.308Z,10.40
2022-11-23T07:32:14.881Z,12.25
2022-11-23T07:37:17.530Z,7.88
2022-11-23T07:42:44.562Z,12.82
2022-11-23T07:47:47.041Z,9.80
2022-11-23T07:52:49.617Z,9.68
2022-11-23T07:57:55.914Z,9.60
2022-11-23T08:08:24.063Z,11.98
2022-11-23T08:13:26.751Z,16.08
2022-11-23T08:18:30.888Z,11.15
2022-11-23T08:23:33.540Z,13.38
2022-11-23T08:28:37.836Z,12.80
2022-11-23T08:33:42.054Z,13.18
2022-11-23T08:38:44.901Z,11.02
2022-11-23T08:43:47.654Z,12.52
2022-11-23T08:48:51.723Z,14.18
2022-11-23T08:53:54.548Z,11.63
2022-11-23T08:58:57.200Z,14.60
2022-11-23T09:04:01.934Z,10.02
2022-11-23T09:09:10.966Z,9.63
2022-11-23T09:14:13.562Z,12.20
2022-11-23T09:19:17.635Z,7.40
2022-11-23T09:24:20.407Z,7.53
2022-11-23T09:29:23.107Z,5.13
2022-11-23T09:34:27.327Z,6.15
2022-11-23T09:39:29.892Z,5.70
2022-11-23T09:44:44.796Z,7.45
2022-11-23T09:49:59.966Z,5.95
2022-11-23T09:55:10.356Z,5.32
2022-11-23T10:00:21.906Z,6.32
2022-11-23T10:05:28.995Z,6.78
2022-11-23T10:10:41.743Z,10.20
2022-11-23T10:16:00.989Z,4.88
2022-11-23T10:21:15.562Z,5.60
2022-11-23T10:26:20.413Z,3.03
2022-11-23T10:31:25.952Z,5.80
2022-11-23T10:36:36.525Z,4.10
2022-11-23T10:41:39.150Z,6.10
2022-11-23T10:46:42.223Z,6.13
2022-11-23T10:51:57.907Z,8.95
2022-11-23T10:57:02.858Z,6.50
2022-11-23T11:02:20.336Z,5.72
2022-11-23T11:07:28.412Z,8.52
2022-11-23T11:12:35.429Z,9.52
2022-11-23T11:17:40.990Z,5.75
2022-11-23T11:22:47.875Z,5.68
2022-11-23T11:27:53.308Z,5.65
2022-11-23T11:33:05.126Z,5.50
2022-11-23T11:38:15.873Z,7.60
2022-11-23T11:43:29.289Z,8.20
2022-11-23T11:48:39.086Z,6.90
2022-11-23T11:53:50.429Z,7.82
2022-11-23T11:59:00.195Z,3.58
2022-11-23T12:04:08.074Z,5.65
2022-11-23T12:09:17.095Z,2.83
2022-11-23T12:14:20.091Z,6.47
2022-11-23T12:19:27.738Z,3.08
2022-11-23T12:24:47.085Z,3.28
2022-11-23T12:30:13.521Z,3.75
2022-11-23T12:35:35.847Z,3.10
2022-11-23T12:41:23.470Z,4.47
2022-11-23T12:46:37.437Z,4.60
2022-11-23T12:51:48.073Z,4.68
2022-11-23T12:57:00.665Z,5.47
2022-11-23T13:02:10.661Z,4.97
2022-11-23T13:07:46.081Z,4.53
2022-11-23T13:13:14.065Z,5.28
2022-11-23T13:18:28.703Z,5.25
2022-11-23T13:23:37.286Z,6.20
2022-11-23T13:28:41.434Z,3.80
2022-11-23T13:33:45.651Z,3.90
2022-11-23T13:38:48.417Z,4.88
2022-11-23T13:43:52.872Z,3.55
2022-11-23T13:59:30.773Z,4.80
2022-11-23T14:04:35.095Z,8.90
2022-11-23T14:09:46.508Z,4.20
2022-11-23T14:14:57.168Z,4.78
2022-11-23T14:20:15.137Z,7.80
2022-11-23T14:25:35.771Z,5.18
2022-11-23T14:31:05.909Z,7.85
2022-11-23T14:36:21.136Z,8.80
2022-11-23T14:41:25.599Z,8.73
2022-11-23T14:51:34.832Z,10.32
2022-11-23T14:56:43.851Z,14.70
2022-11-23T15:01:51.322Z,11.85
2022-11-23T15:06:58.941Z,17.50
2022-11-23T15:12:10.116Z,37.83
2022-11-23T15:17:19.192Z,104.82
2022-11-23T15:22:22.223Z,89.88
2022-11-23T15:27:29.294Z,63.05
2022-11-23T15:32:35.071Z,49.67
2022-11-23T15:37:44.585Z,62.15
2022-11-23T15:42:50.961Z,60.53
2022-11-23T15:47:54.953Z,49.47
2022-11-23T15:53:00.578Z,48.88
2022-11-23T15:58:08.925Z,45.67
2022-11-23T16:03:30.197Z,27.88
2022-11-23T16:08:37.457Z,22.98
2022-11-23T16:13:40.703Z,29.38
2022-11-23T16:18:47.629Z,20.33
2022-11-23T16:23:54.099Z,12.40
2022-11-23T16:28:58.592Z,7.13
2022-11-23T16:34:02.679Z,10.00
2022-11-23T16:39:05.967Z,8.07
2022-11-23T16:44:08.685Z,9.68
2022-11-23T16:49:16.960Z,9.60
2022-11-23T16:54:31.775Z,10.27
2022-11-23T16:59:35.621Z,11.55
2022-11-23T17:04:39.878Z,7.50
2022-11-23T17:09:42.622Z,8.57
2022-11-23T17:14:48.575Z,10.25
2022-11-23T17:19:52.967Z,10.02
2022-11-23T17:24:55.676Z,9.15
2022-11-23T17:30:00.756Z,14.52
2022-11-23T17:35:05.344Z,12.30
2022-11-23T17:45:19.396Z,10.23
2022-11-23T17:50:25.095Z,11.57
2022-11-23T17:55:27.767Z,10.27
2022-11-23T18:00:31.005Z,10.57
2022-11-23T18:05:35.140Z,9.02
2022-11-23T18:10:38.056Z,8.50
2022-11-23T18:15:40.736Z,10.82
2022-11-23T18:20:44.821Z,9.55
2022-11-23T18:25:47.476Z,10.45
2022-11-23T18:30:50.169Z,12.98
2022-11-23T18:35:54.243Z,9.07
2022-11-23T18:40:56.885Z,7.45
2022-11-23T18:45:59.851Z,13.30
2022-11-23T18:51:06.139Z,11.23
2022-11-23T18:56:10.415Z,33.78
2022-11-23T19:01:15.269Z,13.88
2022-11-23T19:06:20.597Z,18.85
2022-11-23T19:11:25.897Z,47.83
2022-11-23T19:16:31.320Z,28.92
2022-11-23T19:21:36.746Z,19.52
2022-11-23T19:26:39.410Z,17.85
2022-11-23T19:31:42.375Z,19.70
2022-11-23T19:36:46.357Z,19.65
2022-11-23T19:41:49.111Z,18.20
2022-11-23T19:46:51.744Z,16.63
2022-11-23T19:51:56.937Z,17.10
2022-11-23T19:56:59.550Z,13.50
2022-11-23T20:02:02.206Z,16.85
2022-11-23T20:07:06.797Z,12.40
2022-11-23T20:17:11.816Z,14.57
2022-11-23T20:22:15.850Z,12.48
2022-11-23T20:27:18.459Z,12.95
2022-11-23T20:32:21.010Z,14.55
2022-11-23T20:37:25.024Z,12.38
2022-11-23T20:42:27.605Z,7.88
2022-11-23T20:47:30.262Z,12.88
2022-11-23T20:52:34.737Z,12.10
2022-11-23T20:57:37.281Z,14.40
2022-11-23T21:02:39.938Z,15.77
2022-11-23T21:07:44.163Z,12.32
2022-11-23T21:13:04.337Z,8.90
2022-11-23T21:18:07.217Z,13.00
2022-11-23T21:23:11.396Z,17.38
2022-11-23T21:28:13.985Z,10.40
2022-11-23T21:33:16.558Z,10.40
2022-11-23T21:38:23.371Z,14.05
2022-11-23T21:43:26.081Z,13.55
2022-11-23T21:48:28.807Z,9.48
2022-11-23T21:53:33.416Z,12.82
2022-11-23T21:58:36.319Z,13.73
2022-11-23T22:03:40.267Z,13.18
2022-11-23T22:08:45.888Z,9.88
2022-11-23T22:13:49.470Z,13.60
2022-11-23T22:18:55.806Z,6.43
2022-11-23T22:24:01.025Z,10.82
2022-11-23T22:29:06.656Z,13.05
2022-11-23T22:34:13.113Z,10.13
2022-11-23T22:39:17.014Z,12.27
2022-11-23T22:44:19.596Z,8.02
2022-11-23T22:49:22.191Z,9.80
2022-11-23T22:54:26.141Z,14.25
2022-11-23T22:59:28.724Z,11.80
2022-11-23T23:04:31.662Z,11.38
2022-11-23T23:09:35.820Z,12.02
2022-11-23T23:14:38.392Z,13.77
2022-11-23T23:19:41.112Z,13.25
2022-11-23T23:24:45.036Z,11.27
2022-11-23T23:29:47.652Z,13.73
2022-11-23T23:34:50.228Z,8.93
2022-11-23T23:39:54.143Z,10.35
2022-11-23T23:44:56.917Z,8.98
2022-11-23T23:49:59.493Z,10.82
2022-11-23T23:55:03.467Z,13.80
